Garland, Texas
Current Conditions -  °F | °C
As of 2:55 AM on Thursday 23 Oct 2014 (Local Time) from KADS Reporting Station
Broken Clouds Broken Clouds  
Wind Chill: 67°   Ceiling: 12000
Heat Index: 67°   Visibility: 10mi
Dew Point: 56°   Wind: 6mph
Humidity: 67%   Direction: 120°ESE
Pressure: 30.14"   Gusts: NA
Location:  32.91°N, 96.64°W
Report Text: KADS 230755Z AUTO 12005KT 10SM SCT044 SCT065 BKN120 20/13 A3014 RMK AO2 T01960133
Loading
Personal Weather Stations






























Interactive Weather Map
Tropical Storm Tracking
New forecast layout! Learn more

10-Day Weather Forecast

Advertisements
Track Severe Weather on mobile